sensor_id;sensor_type;location;lat;lon;timestamp;pressure;altitude;pressure_sealevel;temperature;humidity
39789;BME280;25478;42.626;23.320;2022-07-06T00:00:53;93096.41;;;17.71;100.00
39789;BME280;25478;42.626;23.320;2022-07-06T00:03:19;93095.72;;;17.67;100.00
39789;BME280;25478;42.626;23.320;2022-07-06T00:05:44;93107.88;;;17.68;100.00
39789;BME280;25478;42.626;23.320;2022-07-06T00:08:10;93123.09;;;17.67;100.00
39789;BME280;25478;42.626;23.320;2022-07-06T00:10:35;93128.06;;;17.65;100.00
39789;BME280;25478;42.626;23.320;2022-07-06T00:13:01;93130.72;;;17.65;100.00
39789;BME280;25478;42.626;23.320;2022-07-06T00:15:26;93144.47;;;17.64;100.00
39789;BME280;25478;42.626;23.320;2022-07-06T00:17:52;93128.00;;;17.53;100.00
39789;BME280;25478;42.626;23.320;2022-07-06T00:20:17;93150.31;;;17.59;100.00
39789;BME280;25478;42.626;23.320;2022-07-06T00:22:43;93154.03;;;17.61;100.00
39789;BME280;25478;42.626;23.320;2022-07-06T00:25:09;93154.03;;;17.61;100.00
39789;BME280;25478;42.626;23.320;2022-07-06T00:27:34;93164.19;;;17.66;100.00
39789;BME280;25478;42.626;23.320;2022-07-06T00:30:00;93171.00;;;17.67;100.00
39789;BME280;25478;42.626;23.320;2022-07-06T00:32:25;93182.34;;;17.71;100.00
39789;BME280;25478;42.626;23.320;2022-07-06T00:34:52;93181.53;;;17.75;100.00
39789;BME280;25478;42.626;23.320;2022-07-06T00:37:18;93188.25;;;17.79;100.00
39789;BME280;25478;42.626;23.320;2022-07-06T00:39:43;93184.69;;;17.86;100.00
39789;BME280;25478;42.626;23.320;2022-07-06T00:42:09;93177.34;;;17.90;100.00
39789;BME280;25478;42.626;23.320;2022-07-06T00:44:35;93179.09;;;17.96;100.00
39789;BME280;25478;42.626;23.320;2022-07-06T00:47:00;93177.84;;;18.01;100.00
39789;BME280;25478;42.626;23.320;2022-07-06T00:49:26;93172.84;;;18.03;100.00
39789;BME280;25478;42.626;23.320;2022-07-06T00:52:10;93183.59;;;17.99;100.00
39789;BME280;25478;42.626;23.320;2022-07-06T00:54:37;93170.44;;;18.09;100.00
39789;BME280;25478;42.626;23.320;2022-07-06T00:57:04;93165.69;;;18.16;100.00
39789;BME280;25478;42.626;23.320;2022-07-06T00:59:29;93158.34;;;18.20;100.00
39789;BME280;25478;42.626;23.320;2022-07-06T01:01:55;93150.66;;;18.22;100.00
39789;BME280;25478;42.626;23.320;2022-07-06T01:04:21;93140.00;;;18.22;100.00
39789;BME280;25478;42.626;23.320;2022-07-06T01:06:46;93131.69;;;18.20;100.00
39789;BME280;25478;42.626;23.320;2022-07-06T01:09:12;93119.22;;;18.17;100.00
39789;BME280;25478;42.626;23.320;2022-07-06T01:11:38;93120.41;;;18.16;100.00
39789;BME280;25478;42.626;23.320;2022-07-06T01:14:04;93122.81;;;18.11;100.00
39789;BME280;25478;42.626;23.320;2022-07-06T01:16:31;93122.25;;;18.03;100.00
39789;BME280;25478;42.626;23.320;2022-07-06T01:18:57;93122.25;;;18.03;100.00
39789;BME280;25478;42.626;23.320;2022-07-06T01:21:22;93122.34;;;17.99;100.00
39789;BME280;25478;42.626;23.320;2022-07-06T01:23:48;93119.34;;;17.97;100.00
39789;BME280;25478;42.626;23.320;2022-07-06T01:26:15;93123.16;;;17.96;100.00
39789;BME280;25478;42.626;23.320;2022-07-06T01:28:42;93119.59;;;17.87;100.00
39789;BME280;25478;42.626;23.320;2022-07-06T01:31:18;93126.84;;;17.86;100.00
39789;BME280;25478;42.626;23.320;2022-07-06T01:33:44;93133.09;;;17.80;100.00
39789;BME280;25478;42.626;23.320;2022-07-06T01:36:10;93123.72;;;17.75;100.00
39789;BME280;25478;42.626;23.320;2022-07-06T01:38:49;93123.72;;;17.75;100.00
39789;BME280;25478;42.626;23.320;2022-07-06T01:41:15;93126.09;;;17.69;100.00
39789;BME280;25478;42.626;23.320;2022-07-06T01:43:41;93132.66;;;17.65;100.00
39789;BME280;25478;42.626;23.320;2022-07-06T01:46:07;93126.25;;;17.62;100.00
39789;BME280;25478;42.626;23.320;2022-07-06T01:48:33;93129.75;;;17.59;100.00
39789;BME280;25478;42.626;23.320;2022-07-06T01:50:58;93123.69;;;17.59;100.00
39789;BME280;25478;42.626;23.320;2022-07-06T01:53:24;93127.84;;;17.60;100.00
39789;BME280;25478;42.626;23.320;2022-07-06T01:55:50;93132.00;;;17.61;100.00
39789;BME280;25478;42.626;23.320;2022-07-06T01:58:15;93119.91;;;17.56;100.00
39789;BME280;25478;42.626;23.320;2022-07-06T02:00:41;93133.16;;;17.60;100.00
39789;BME280;25478;42.626;23.320;2022-07-06T02:03:07;93137.81;;;17.56;100.00
39789;BME280;25478;42.626;23.320;2022-07-06T02:05:34;93144.28;;;17.55;100.00
39789;BME280;25478;42.626;23.320;2022-07-06T02:08:00;93140.97;;;17.51;100.00
39789;BME280;25478;42.626;23.320;2022-07-06T02:10:25;93146.38;;;17.47;100.00
39789;BME280;25478;42.626;23.320;2022-07-06T02:12:51;93141.56;;;17.42;100.00
39789;BME280;25478;42.626;23.320;2022-07-06T02:15:17;93138.63;;;17.36;100.00
39789;BME280;25478;42.626;23.320;2022-07-06T02:17:42;93135.31;;;17.32;100.00
39789;BME280;25478;42.626;23.320;2022-07-06T02:20:08;93150.03;;;17.37;100.00
39789;BME280;25478;42.626;23.320;2022-07-06T02:22:34;93131.06;;;17.35;100.00
39789;BME280;25478;42.626;23.320;2022-07-06T02:25:00;93133.00;;;17.34;100.00
39789;BME280;25478;42.626;23.320;2022-07-06T02:27:26;93133.06;;;17.31;100.00
39789;BME280;25478;42.626;23.320;2022-07-06T02:29:52;93141.97;;;17.24;100.00
39789;BME280;25478;42.626;23.320;2022-07-06T02:32:17;93139.47;;;17.17;100.00
39789;BME280;25478;42.626;23.320;2022-07-06T02:34:43;93129.38;;;17.08;100.00
39789;BME280;25478;42.626;23.320;2022-07-06T02:37:09;93107.06;;;16.86;100.00
39789;BME280;25478;42.626;23.320;2022-07-06T02:39:35;93126.53;;;16.99;100.00
39789;BME280;25478;42.626;23.320;2022-07-06T02:42:02;93125.84;;;16.95;100.00
39789;BME280;25478;42.626;23.320;2022-07-06T02:44:28;93130.50;;;16.91;100.00
39789;BME280;25478;42.626;23.320;2022-07-06T02:46:53;93129.81;;;16.87;100.00
39789;BME280;25478;42.626;23.320;2022-07-06T02:49:19;93130.97;;;16.86;100.00
39789;BME280;25478;42.626;23.320;2022-07-06T02:51:45;93124.91;;;16.85;100.00
39789;BME280;25478;42.626;23.320;2022-07-06T02:54:11;93115.94;;;16.79;100.00
39789;BME280;25478;42.626;23.320;2022-07-06T02:56:36;93129.03;;;16.90;100.00
39789;BME280;25478;42.626;23.320;2022-07-06T02:59:02;93132.47;;;16.87;100.00
39789;BME280;25478;42.626;23.320;2022-07-06T03:01:28;93132.47;;;16.87;100.00
39789;BME280;25478;42.626;23.320;2022-07-06T03:03:54;93130.91;;;16.89;100.00
39789;BME280;25478;42.626;23.320;2022-07-06T03:06:19;93119.59;;;16.85;100.00
39789;BME280;25478;42.626;23.320;2022-07-06T03:08:45;93128.25;;;16.89;100.00
39789;BME280;25478;42.626;23.320;2022-07-06T03:11:11;93106.19;;;16.73;100.00
39789;BME280;25478;42.626;23.320;2022-07-06T03:13:37;93123.91;;;16.79;100.00
39789;BME280;25478;42.626;23.320;2022-07-06T03:16:03;93131.97;;;16.76;100.00
39789;BME280;25478;42.626;23.320;2022-07-06T03:18:30;93124.78;;;16.73;100.00
39789;BME280;25478;42.626;23.320;2022-07-06T03:20:55;93130.88;;;16.73;100.00
39789;BME280;25478;42.626;23.320;2022-07-06T03:23:21;93142.66;;;16.72;100.00
39789;BME280;25478;42.626;23.320;2022-07-06T03:25:47;93120.00;;;16.64;100.00
39789;BME280;25478;42.626;23.320;2022-07-06T03:28:13;93141.91;;;16.72;100.00
39789;BME280;25478;42.626;23.320;2022-07-06T03:30:38;93139.94;;;16.76;100.00
39789;BME280;25478;42.626;23.320;2022-07-06T03:33:04;93132.56;;;16.83;100.00
39789;BME280;25478;42.626;23.320;2022-07-06T03:35:29;93134.47;;;16.83;100.00
39789;BME280;25478;42.626;23.320;2022-07-06T03:37:56;93148.56;;;17.00;100.00
39789;BME280;25478;42.626;23.320;2022-07-06T03:40:23;93151.13;;;17.03;100.00
39789;BME280;25478;42.626;23.320;2022-07-06T03:42:50;93146.91;;;17.06;100.00
39789;BME280;25478;42.626;23.320;2022-07-06T03:45:16;93148.75;;;17.09;100.00
39789;BME280;25478;42.626;23.320;2022-07-06T03:47:41;93151.31;;;17.12;100.00
39789;BME280;25478;42.626;23.320;2022-07-06T03:50:08;93153.91;;;17.16;100.00
39789;BME280;25478;42.626;23.320;2022-07-06T03:52:35;93155.75;;;17.19;100.00
39789;BME280;25478;42.626;23.320;2022-07-06T03:55:09;93151.50;;;17.22;100.00
39789;BME280;25478;42.626;23.320;2022-07-06T03:57:38;93153.69;;;17.27;100.00
39789;BME280;25478;42.626;23.320;2022-07-06T04:00:07;93157.09;;;17.27;100.00
39789;BME280;25478;42.626;23.320;2022-07-06T04:02:40;93155.34;;;17.37;100.00
39789;BME280;25478;42.626;23.320;2022-07-06T04:05:07;93160.44;;;17.48;100.00
39789;BME280;25478;42.626;23.320;2022-07-06T04:07:34;93144.13;;;17.45;99.77
39789;BME280;25478;42.626;23.320;2022-07-06T04:09:59;93156.69;;;17.61;99.11
39789;BME280;25478;42.626;23.320;2022-07-06T04:12:25;93164.88;;;17.70;98.40
39789;BME280;25478;42.626;23.320;2022-07-06T04:14:51;93168.53;;;17.77;97.98
39789;BME280;25478;42.626;23.320;2022-07-06T04:17:17;93161.97;;;17.81;97.17
39789;BME280;25478;42.626;23.320;2022-07-06T04:20:01;93160.56;;;17.93;96.56
39789;BME280;25478;42.626;23.320;2022-07-06T04:22:26;93163.53;;;17.95;96.01
39789;BME280;25478;42.626;23.320;2022-07-06T04:24:52;93163.28;;;18.06;95.81
39789;BME280;25478;42.626;23.320;2022-07-06T04:27:18;93162.03;;;18.10;95.33
39789;BME280;25478;42.626;23.320;2022-07-06T04:29:44;93164.59;;;18.14;94.83
39789;BME280;25478;42.626;23.320;2022-07-06T04:32:10;93167.94;;;18.18;94.36
39789;BME280;25478;42.626;23.320;2022-07-06T04:34:35;93168.16;;;18.23;94.25
39789;BME280;25478;42.626;23.320;2022-07-06T04:37:01;93169.13;;;18.29;94.01
39789;BME280;25478;42.626;23.320;2022-07-06T04:39:27;93177.41;;;18.48;92.96
39789;BME280;25478;42.626;23.320;2022-07-06T04:41:53;93168.50;;;18.54;92.16
39789;BME280;25478;42.626;23.320;2022-07-06T04:44:19;93185.22;;;18.71;91.34
39789;BME280;25478;42.626;23.320;2022-07-06T04:46:45;93188.13;;;18.77;90.42
39789;BME280;25478;42.626;23.320;2022-07-06T04:49:11;93188.81;;;19.06;89.25
39789;BME280;25478;42.626;23.320;2022-07-06T04:51:37;93197.06;;;19.12;88.31
39789;BME280;25478;42.626;23.320;2022-07-06T04:54:03;93206.31;;;18.95;88.98
39789;BME280;25478;42.626;23.320;2022-07-06T04:56:31;93210.72;;;18.72;89.92
39789;BME280;25478;42.626;23.320;2022-07-06T04:58:57;93210.41;;;18.54;91.04
39789;BME280;25478;42.626;23.320;2022-07-06T05:01:24;93216.50;;;18.38;92.10
39789;BME280;25478;42.626;23.320;2022-07-06T05:03:49;93217.38;;;18.19;93.28
39789;BME280;25478;42.626;23.320;2022-07-06T05:06:18;93201.56;;;17.95;94.04
39789;BME280;25478;42.626;23.320;2022-07-06T05:08:45;93221.66;;;18.00;94.01
39789;BME280;25478;42.626;23.320;2022-07-06T05:11:11;93227.34;;;17.98;94.04
39789;BME280;25478;42.626;23.320;2022-07-06T05:13:37;93230.44;;;17.97;94.44
39789;BME280;25478;42.626;23.320;2022-07-06T05:16:03;93222.78;;;17.99;94.45
39789;BME280;25478;42.626;23.320;2022-07-06T05:18:29;93234.28;;;18.12;94.01
39789;BME280;25478;42.626;23.320;2022-07-06T05:20:55;93239.00;;;18.21;93.85
39789;BME280;25478;42.626;23.320;2022-07-06T05:23:21;93240.81;;;18.40;93.28
39789;BME280;25478;42.626;23.320;2022-07-06T05:25:47;93238.13;;;18.73;91.97
39789;BME280;25478;42.626;23.320;2022-07-06T05:28:12;93239.50;;;19.06;89.86
39789;BME280;25478;42.626;23.320;2022-07-06T05:30:38;93243.88;;;19.55;87.42
39789;BME280;25478;42.626;23.320;2022-07-06T05:33:04;93240.69;;;19.98;85.40
39789;BME280;25478;42.626;23.320;2022-07-06T05:35:30;93250.75;;;20.41;83.17
39789;BME280;25478;42.626;23.320;2022-07-06T05:37:55;93245.38;;;20.67;79.98
39789;BME280;25478;42.626;23.320;2022-07-06T05:40:21;93240.09;;;20.76;79.21
39789;BME280;25478;42.626;23.320;2022-07-06T05:42:47;93248.75;;;21.02;78.45
39789;BME280;25478;42.626;23.320;2022-07-06T05:45:13;93249.00;;;21.17;76.89
39789;BME280;25478;42.626;23.320;2022-07-06T05:47:39;93256.69;;;21.27;75.64
39789;BME280;25478;42.626;23.320;2022-07-06T05:50:24;93251.44;;;21.46;73.98
39789;BME280;25478;42.626;23.320;2022-07-06T05:52:58;93259.91;;;21.75;73.14
39789;BME280;25478;42.626;23.320;2022-07-06T05:55:25;93254.59;;;22.25;71.85
39789;BME280;25478;42.626;23.320;2022-07-06T05:57:52;93245.84;;;22.42;69.71
39789;BME280;25478;42.626;23.320;2022-07-06T06:00:20;93246.63;;;22.70;68.03
39789;BME280;25478;42.626;23.320;2022-07-06T06:02:51;93256.75;;;22.66;68.10
39789;BME280;25478;42.626;23.320;2022-07-06T06:05:19;93259.13;;;22.46;67.80
39789;BME280;25478;42.626;23.320;2022-07-06T06:07:46;93260.22;;;22.17;68.85
39789;BME280;25478;42.626;23.320;2022-07-06T06:10:14;93248.88;;;22.04;69.27
39789;BME280;25478;42.626;23.320;2022-07-06T06:12:41;93247.19;;;21.98;70.06
39789;BME280;25478;42.626;23.320;2022-07-06T06:15:08;93238.72;;;21.99;69.16
39789;BME280;25478;42.626;23.320;2022-07-06T06:17:36;93250.47;;;22.02;69.46
39789;BME280;25478;42.626;23.320;2022-07-06T06:20:03;93250.53;;;22.11;68.52
39789;BME280;25478;42.626;23.320;2022-07-06T06:22:29;93245.63;;;22.18;68.27
39789;BME280;25478;42.626;23.320;2022-07-06T06:24:55;93255.50;;;22.22;67.90
39789;BME280;25478;42.626;23.320;2022-07-06T06:27:20;93246.97;;;22.14;67.46
39789;BME280;25478;42.626;23.320;2022-07-06T06:29:46;93249.97;;;21.85;68.01
39789;BME280;25478;42.626;23.320;2022-07-06T06:32:12;93254.03;;;21.58;68.88
39789;BME280;25478;42.626;23.320;2022-07-06T06:34:38;93246.03;;;21.37;70.13
39789;BME280;25478;42.626;23.320;2022-07-06T06:37:04;93242.91;;;21.16;71.44
39789;BME280;25478;42.626;23.320;2022-07-06T06:39:30;93242.91;;;20.94;71.79
39789;BME280;25478;42.626;23.320;2022-07-06T06:41:55;93246.56;;;20.66;73.72
39789;BME280;25478;42.626;23.320;2022-07-06T06:44:21;93250.44;;;20.39;75.71
39789;BME280;25478;42.626;23.320;2022-07-06T06:46:50;93244.06;;;20.24;77.26
39789;BME280;25478;42.626;23.320;2022-07-06T06:49:17;93246.78;;;20.11;78.73
39789;BME280;25478;42.626;23.320;2022-07-06T06:51:43;93241.63;;;19.91;79.80
39789;BME280;25478;42.626;23.320;2022-07-06T06:54:09;93205.19;;;19.47;81.01
39789;BME280;25478;42.626;23.320;2022-07-06T06:56:34;93248.91;;;19.65;81.83
39789;BME280;25478;42.626;23.320;2022-07-06T06:59:00;93245.06;;;19.66;82.78
39789;BME280;25478;42.626;23.320;2022-07-06T07:01:27;93234.72;;;19.81;82.48
39789;BME280;25478;42.626;23.320;2022-07-06T07:03:52;93244.53;;;20.10;81.75
39789;BME280;25478;42.626;23.320;2022-07-06T07:06:20;93229.06;;;20.39;80.47
39789;BME280;25478;42.626;23.320;2022-07-06T07:08:46;93240.59;;;20.84;79.16
39789;BME280;25478;42.626;23.320;2022-07-06T07:11:11;93239.38;;;20.97;78.38
39789;BME280;25478;42.626;23.320;2022-07-06T07:13:37;93248.59;;;20.96;77.53
39789;BME280;25478;42.626;23.320;2022-07-06T07:16:02;93253.88;;;20.87;77.34
39789;BME280;25478;42.626;23.320;2022-07-06T07:18:28;93245.44;;;20.76;77.22
39789;BME280;25478;42.626;23.320;2022-07-06T07:20:53;93240.91;;;20.64;77.81
39789;BME280;25478;42.626;23.320;2022-07-06T07:23:19;93246.91;;;20.55;78.90
39789;BME280;25478;42.626;23.320;2022-07-06T07:25:44;93244.97;;;20.43;78.95
39789;BME280;25478;42.626;23.320;2022-07-06T07:28:10;93250.56;;;20.36;79.84
39789;BME280;25478;42.626;23.320;2022-07-06T07:30:35;93234.63;;;20.32;79.56
39789;BME280;25478;42.626;23.320;2022-07-06T07:33:01;93252.16;;;20.33;79.80
39789;BME280;25478;42.626;23.320;2022-07-06T07:35:27;93256.78;;;20.33;79.53
39789;BME280;25478;42.626;23.320;2022-07-06T07:37:53;93253.34;;;20.32;79.56
39789;BME280;25478;42.626;23.320;2022-07-06T07:40:19;93250.91;;;20.25;79.41
39789;BME280;25478;42.626;23.320;2022-07-06T07:42:44;93248.78;;;20.20;79.25
39789;BME280;25478;42.626;23.320;2022-07-06T07:45:11;93244.06;;;20.24;79.28
39789;BME280;25478;42.626;23.320;2022-07-06T07:47:36;93245.22;;;20.36;79.44
39789;BME280;25478;42.626;23.320;2022-07-06T07:50:02;93244.69;;;20.54;79.30
39789;BME280;25478;42.626;23.320;2022-07-06T07:52:28;93248.38;;;20.69;78.61
39789;BME280;25478;42.626;23.320;2022-07-06T07:54:53;93242.84;;;20.85;78.58
39789;BME280;25478;42.626;23.320;2022-07-06T07:57:19;93239.22;;;21.01;78.28
39789;BME280;25478;42.626;23.320;2022-07-06T07:59:44;93229.50;;;21.29;77.09
39789;BME280;25478;42.626;23.320;2022-07-06T08:02:10;93217.41;;;21.55;76.53
39789;BME280;25478;42.626;23.320;2022-07-06T08:04:35;93228.47;;;22.07;75.93
39789;BME280;25478;42.626;23.320;2022-07-06T08:07:01;93230.50;;;22.43;72.89
39789;BME280;25478;42.626;23.320;2022-07-06T08:09:26;93231.69;;;22.60;71.63
39789;BME280;25478;42.626;23.320;2022-07-06T08:11:52;93237.38;;;22.81;70.03
39789;BME280;25478;42.626;23.320;2022-07-06T08:14:18;93242.75;;;22.81;69.27
39789;BME280;25478;42.626;23.320;2022-07-06T08:16:43;93240.84;;;22.90;69.28
39789;BME280;25478;42.626;23.320;2022-07-06T08:19:09;93236.81;;;23.04;68.15
39789;BME280;25478;42.626;23.320;2022-07-06T08:21:35;93241.28;;;23.07;67.80
39789;BME280;25478;42.626;23.320;2022-07-06T08:24:00;93218.44;;;23.02;67.23
39789;BME280;25478;42.626;23.320;2022-07-06T08:26:27;93234.13;;;23.13;66.69
39789;BME280;25478;42.626;23.320;2022-07-06T08:28:52;93231.84;;;23.12;66.74
39789;BME280;25478;42.626;23.320;2022-07-06T08:31:18;93237.09;;;23.06;66.74
39789;BME280;25478;42.626;23.320;2022-07-06T08:33:44;93222.47;;;22.80;68.01
39789;BME280;25478;42.626;23.320;2022-07-06T08:36:09;93240.94;;;22.77;68.01
39789;BME280;25478;42.626;23.320;2022-07-06T08:38:35;93241.25;;;22.70;68.35
39789;BME280;25478;42.626;23.320;2022-07-06T08:41:01;93238.13;;;22.72;67.39
39789;BME280;25478;42.626;23.320;2022-07-06T08:43:27;93216.06;;;22.68;67.04
39789;BME280;25478;42.626;23.320;2022-07-06T08:45:54;93230.69;;;22.94;66.59
39789;BME280;25478;42.626;23.320;2022-07-06T08:48:23;93232.31;;;23.01;65.61
39789;BME280;25478;42.626;23.320;2022-07-06T08:50:49;93234.13;;;23.04;65.41
39789;BME280;25478;42.626;23.320;2022-07-06T08:53:17;93242.59;;;23.21;65.37
39789;BME280;25478;42.626;23.320;2022-07-06T08:55:42;93233.78;;;23.20;65.50
39789;BME280;25478;42.626;23.320;2022-07-06T08:58:08;93232.31;;;23.01;65.60
39789;BME280;25478;42.626;23.320;2022-07-06T09:00:34;93243.03;;;23.10;66.72
39789;BME280;25478;42.626;23.320;2022-07-06T09:03:01;93223.78;;;23.30;66.44
39789;BME280;25478;42.626;23.320;2022-07-06T09:05:28;93227.31;;;23.45;65.21
39789;BME280;25478;42.626;23.320;2022-07-06T09:07:54;93234.78;;;23.41;64.44
39789;BME280;25478;42.626;23.320;2022-07-06T09:10:21;93227.44;;;23.51;64.18
39789;BME280;25478;42.626;23.320;2022-07-06T09:12:47;93232.38;;;23.62;63.27
39789;BME280;25478;42.626;23.320;2022-07-06T09:15:14;93228.94;;;23.61;63.54
39789;BME280;25478;42.626;23.320;2022-07-06T09:17:41;93224.25;;;23.80;62.32
39789;BME280;25478;42.626;23.320;2022-07-06T09:20:11;93219.63;;;23.80;61.55
39789;BME280;25478;42.626;23.320;2022-07-06T09:22:38;93227.06;;;23.85;61.12
39789;BME280;25478;42.626;23.320;2022-07-06T09:27:43;93222.81;;;24.27;60.60
39789;BME280;25478;42.626;23.320;2022-07-06T09:30:12;93231.91;;;24.29;60.43
39789;BME280;25478;42.626;23.320;2022-07-06T09:32:39;93227.31;;;24.21;60.82
39789;BME280;25478;42.626;23.320;2022-07-06T09:35:05;93230.44;;;24.28;60.88
39789;BME280;25478;42.626;23.320;2022-07-06T09:37:31;93222.03;;;24.35;61.00
39789;BME280;25478;42.626;23.320;2022-07-06T09:39:56;93228.84;;;24.46;59.87
39789;BME280;25478;42.626;23.320;2022-07-06T09:42:26;93223.19;;;24.43;60.51
39789;BME280;25478;42.626;23.320;2022-07-06T09:44:53;93226.09;;;24.31;60.07
39789;BME280;25478;42.626;23.320;2022-07-06T09:47:19;93219.50;;;24.08;60.94
39789;BME280;25478;42.626;23.320;2022-07-06T09:49:45;93210.69;;;24.07;60.47
39789;BME280;25478;42.626;23.320;2022-07-06T09:52:11;93206.88;;;23.90;61.43
39789;BME280;25478;42.626;23.320;2022-07-06T09:54:38;93198.91;;;24.05;62.23
39789;BME280;25478;42.626;23.320;2022-07-06T09:57:05;93201.13;;;24.30;60.98
39789;BME280;25478;42.626;23.320;2022-07-06T09:59:33;93203.13;;;24.21;61.21
39789;BME280;25478;42.626;23.320;2022-07-06T10:02:02;93210.69;;;24.07;62.40
39789;BME280;25478;42.626;23.320;2022-07-06T10:04:29;93215.25;;;24.16;61.86
39789;BME280;25478;42.626;23.320;2022-07-06T10:06:56;93213.88;;;24.21;61.63
39789;BME280;25478;42.626;23.320;2022-07-06T10:09:24;93217.50;;;24.18;60.99
39789;BME280;25478;42.626;23.320;2022-07-06T10:11:53;93212.91;;;24.09;62.26
39789;BME280;25478;42.626;23.320;2022-07-06T10:14:25;93214.72;;;24.03;61.60
39789;BME280;25478;42.626;23.320;2022-07-06T10:16:52;93214.81;;;23.84;61.78
39789;BME280;25478;42.626;23.320;2022-07-06T10:19:19;93201.75;;;23.68;61.69
39789;BME280;25478;42.626;23.320;2022-07-06T10:21:45;93204.47;;;23.50;61.38
39789;BME280;25478;42.626;23.320;2022-07-06T10:24:11;93209.59;;;23.20;62.55
39789;BME280;25478;42.626;23.320;2022-07-06T10:26:38;93207.41;;;23.10;63.45
39789;BME280;25478;42.626;23.320;2022-07-06T10:29:05;93205.91;;;23.18;63.42
39789;BME280;25478;42.626;23.320;2022-07-06T10:31:32;93201.25;;;23.27;63.59
39789;BME280;25478;42.626;23.320;2022-07-06T10:34:00;93199.28;;;23.37;62.84
39789;BME280;25478;42.626;23.320;2022-07-06T10:36:27;93192.72;;;23.38;62.46
39789;BME280;25478;42.626;23.320;2022-07-06T10:38:53;93201.81;;;23.41;63.30
39789;BME280;25478;42.626;23.320;2022-07-06T10:41:31;93182.81;;;23.53;64.02
39789;BME280;25478;42.626;23.320;2022-07-06T10:43:57;93185.06;;;23.55;64.20
39789;BME280;25478;42.626;23.320;2022-07-06T10:46:27;93189.50;;;23.67;65.00
39789;BME280;25478;42.626;23.320;2022-07-06T10:48:54;93187.06;;;23.78;63.75
39789;BME280;25478;42.626;23.320;2022-07-06T10:51:24;93191.53;;;23.81;63.75
39789;BME280;25478;42.626;23.320;2022-07-06T10:53:57;93202.41;;;23.87;62.81
39789;BME280;25478;42.626;23.320;2022-07-06T10:56:45;93196.19;;;23.81;63.21
39789;BME280;25478;42.626;23.320;2022-07-06T10:59:12;93193.63;;;23.77;62.64
39789;BME280;25478;42.626;23.320;2022-07-06T11:01:37;93194.56;;;23.74;62.16
39789;BME280;25478;42.626;23.320;2022-07-06T11:06:32;93195.84;;;23.88;62.96
39789;BME280;25478;42.626;23.320;2022-07-06T11:09:06;93191.13;;;24.07;61.43
39789;BME280;25478;42.626;23.320;2022-07-06T11:16:28;93194.56;;;24.31;60.06
39789;BME280;25478;42.626;23.320;2022-07-06T11:19:14;93185.63;;;24.25;59.67
39789;BME280;25478;42.626;23.320;2022-07-06T11:24:07;93185.63;;;24.25;60.64
39789;BME280;25478;42.626;23.320;2022-07-06T11:26:34;93181.84;;;24.56;58.69
39789;BME280;25478;42.626;23.320;2022-07-06T11:29:03;93178.50;;;24.61;58.08
39789;BME280;25478;42.626;23.320;2022-07-06T11:31:30;93188.38;;;24.64;58.50
39789;BME280;25478;42.626;23.320;2022-07-06T11:33:58;93188.84;;;24.77;57.77
39789;BME280;25478;42.626;23.320;2022-07-06T11:36:23;93191.72;;;24.74;57.30
39789;BME280;25478;42.626;23.320;2022-07-06T11:38:50;93193.50;;;24.77;58.17
39789;BME280;25478;42.626;23.320;2022-07-06T11:41:17;93181.44;;;24.87;57.58
39789;BME280;25478;42.626;23.320;2022-07-06T11:43:44;93171.50;;;24.93;56.87
39789;BME280;25478;42.626;23.320;2022-07-06T11:48:53;93165.38;;;24.92;56.08
39789;BME280;25478;42.626;23.320;2022-07-06T11:51:20;93167.16;;;24.81;55.75
39789;BME280;25478;42.626;23.320;2022-07-06T11:53:48;93155.63;;;24.80;55.77
39789;BME280;25478;42.626;23.320;2022-07-06T11:56:17;93156.00;;;24.73;55.94
39789;BME280;25478;42.626;23.320;2022-07-06T11:58:57;93160.47;;;24.91;56.48
39789;BME280;25478;42.626;23.320;2022-07-06T12:01:24;93154.81;;;25.04;55.25
39789;BME280;25478;42.626;23.320;2022-07-06T12:03:50;93149.06;;;25.11;54.59
39789;BME280;25478;42.626;23.320;2022-07-06T12:06:24;93151.56;;;25.29;54.17
39789;BME280;25478;42.626;23.320;2022-07-06T12:08:54;93156.59;;;25.36;54.35
39789;BME280;25478;42.626;23.320;2022-07-06T12:11:25;93151.28;;;25.42;54.15
39789;BME280;25478;42.626;23.320;2022-07-06T12:13:53;93153.34;;;25.32;53.42
39789;BME280;25478;42.626;23.320;2022-07-06T12:16:19;93154.47;;;25.11;52.92
39789;BME280;25478;42.626;23.320;2022-07-06T12:18:47;93153.50;;;24.84;53.35
39789;BME280;25478;42.626;23.320;2022-07-06T12:21:15;93158.50;;;24.77;54.17
39789;BME280;25478;42.626;23.320;2022-07-06T12:23:51;93158.69;;;24.88;53.79
39789;BME280;25478;42.626;23.320;2022-07-06T12:26:19;93156.47;;;24.86;54.32
39789;BME280;25478;42.626;23.320;2022-07-06T12:28:46;93157.50;;;24.89;54.70
39789;BME280;25478;42.626;23.320;2022-07-06T12:31:34;93163.53;;;24.84;52.92
39789;BME280;25478;42.626;23.320;2022-07-06T12:34:00;93154.88;;;24.65;53.89
39789;BME280;25478;42.626;23.320;2022-07-06T12:36:25;93156.84;;;24.40;54.55
39789;BME280;25478;42.626;23.320;2022-07-06T12:38:51;93167.78;;;24.37;55.43
39789;BME280;25478;42.626;23.320;2022-07-06T12:41:27;93160.91;;;24.36;55.22
39789;BME280;25478;42.626;23.320;2022-07-06T12:44:09;93163.78;;;24.32;55.74
39789;BME280;25478;42.626;23.320;2022-07-06T12:46:39;93151.59;;;24.22;56.00
39789;BME280;25478;42.626;23.320;2022-07-06T12:51:53;93149.97;;;24.15;56.07
39789;BME280;25478;42.626;23.320;2022-07-06T12:54:19;93138.75;;;24.17;55.76
39789;BME280;25478;42.626;23.320;2022-07-06T12:59:29;93142.25;;;24.32;54.83
39789;BME280;25478;42.626;23.320;2022-07-06T13:01:55;93151.56;;;24.46;54.34
39789;BME280;25478;42.626;23.320;2022-07-06T13:04:23;93141.41;;;24.65;54.62
39789;BME280;25478;42.626;23.320;2022-07-06T13:06:49;93140.13;;;24.75;54.58